createdAt,value
2022-11-22T00:00:20.523Z,7.55
2022-11-22T00:01:52.273Z,7.63
2022-11-22T00:03:23.960Z,8.35
2022-11-22T00:04:55.713Z,7.95
2022-11-22T00:06:27.376Z,8.55
2022-11-22T00:07:58.984Z,7.70
2022-11-22T00:09:31.199Z,7.40
2022-11-22T00:11:02.912Z,9.05
2022-11-22T00:12:34.858Z,8.00
2022-11-22T00:14:06.605Z,7.47
2022-11-22T00:15:38.257Z,6.97
2022-11-22T00:17:09.887Z,8.57
2022-11-22T00:18:41.582Z,7.75
2022-11-22T00:20:13.765Z,7.45
2022-11-22T00:21:45.338Z,7.88
2022-11-22T00:23:16.975Z,7.57
2022-11-22T00:24:51.301Z,8.40
2022-11-22T00:26:23.987Z,8.02
2022-11-22T00:27:55.591Z,8.43
2022-11-22T00:29:27.628Z,7.68
2022-11-22T00:30:59.394Z,7.10
2022-11-22T00:32:31.071Z,9.32
2022-11-22T00:34:03.111Z,7.22
2022-11-22T00:35:34.725Z,8.55
2022-11-22T00:37:06.568Z,8.07
2022-11-22T00:38:38.193Z,8.32
2022-11-22T00:40:10.159Z,7.90
2022-11-22T00:41:41.656Z,7.20
2022-11-22T00:43:13.277Z,8.43
2022-11-22T00:44:44.865Z,8.43
2022-11-22T00:46:16.402Z,7.13
2022-11-22T00:47:48.036Z,7.18
2022-11-22T00:49:19.750Z,8.23
2022-11-22T00:50:51.572Z,7.25
2022-11-22T00:52:23.197Z,7.35
2022-11-22T00:53:54.693Z,8.35
2022-11-22T00:55:26.376Z,8.02
2022-11-22T00:56:58.090Z,8.52
2022-11-22T00:58:29.736Z,8.55
2022-11-22T01:00:01.661Z,8.25
2022-11-22T01:01:33.298Z,9.02
2022-11-22T01:03:04.882Z,6.70
2022-11-22T01:04:36.447Z,7.32
2022-11-22T01:06:07.999Z,6.93
2022-11-22T01:07:39.785Z,5.43
2022-11-22T01:09:17.995Z,8.55
2022-11-22T01:10:55.956Z,7.30
2022-11-22T01:12:27.506Z,7.00
2022-11-22T01:13:59.119Z,6.22
2022-11-22T01:15:31.486Z,7.00
2022-11-22T01:17:03.291Z,6.55
2022-11-22T01:18:35.314Z,7.13
2022-11-22T01:20:07.637Z,6.45
2022-11-22T01:21:39.778Z,7.43
2022-11-22T01:23:11.371Z,6.53
2022-11-22T01:24:42.953Z,6.05
2022-11-22T01:26:14.528Z,6.60
2022-11-22T01:27:46.150Z,6.80
2022-11-22T01:29:17.738Z,6.25
2022-11-22T01:30:53.516Z,7.50
2022-11-22T01:32:25.180Z,7.88
2022-11-22T01:33:57.516Z,8.57
2022-11-22T01:35:29.428Z,10.05
2022-11-22T01:37:01.035Z,8.52
2022-11-22T01:38:32.651Z,9.15
2022-11-22T01:40:04.571Z,8.90
2022-11-22T01:41:36.260Z,9.82
2022-11-22T01:43:28.111Z,10.25
2022-11-22T01:45:32.089Z,10.45
2022-11-22T01:47:10.779Z,9.80
2022-11-22T01:48:56.858Z,9.15
2022-11-22T01:50:31.342Z,8.35
2022-11-22T01:52:07.510Z,9.02
2022-11-22T01:53:39.983Z,8.35
2022-11-22T01:55:12.937Z,8.68
2022-11-22T01:56:48.170Z,9.07
2022-11-22T01:58:21.556Z,9.13
2022-11-22T01:59:58.139Z,8.70
2022-11-22T02:01:30.341Z,8.32
2022-11-22T02:03:04.590Z,8.95
2022-11-22T02:04:37.130Z,9.02
2022-11-22T02:06:08.862Z,8.57
2022-11-22T02:07:49.597Z,8.63
2022-11-22T02:09:22.645Z,8.85
2022-11-22T02:10:56.495Z,8.50
2022-11-22T02:12:30.188Z,7.57
2022-11-22T02:14:03.715Z,8.82
2022-11-22T02:15:36.074Z,8.15
2022-11-22T02:17:07.741Z,7.93
2022-11-22T02:18:39.670Z,7.32
2022-11-22T02:20:12.109Z,6.78
2022-11-22T02:21:50.197Z,7.30
2022-11-22T02:23:30.787Z,5.72
2022-11-22T02:25:19.302Z,7.13
2022-11-22T02:26:50.818Z,6.95
2022-11-22T02:28:22.762Z,6.63
2022-11-22T02:29:54.345Z,6.25
2022-11-22T02:31:46.887Z,7.07
2022-11-22T02:33:18.742Z,8.00
2022-11-22T02:34:51.473Z,7.80
2022-11-22T02:36:23.140Z,8.07
2022-11-22T02:38:01.209Z,7.65
2022-11-22T02:39:32.966Z,7.72
2022-11-22T02:41:08.940Z,7.00
2022-11-22T02:42:45.253Z,8.40
2022-11-22T02:44:17.778Z,8.40
2022-11-22T02:45:49.390Z,7.30
2022-11-22T02:47:21.294Z,6.85
2022-11-22T02:48:52.860Z,8.43
2022-11-22T02:50:24.408Z,8.65
2022-11-22T02:51:55.984Z,8.15
2022-11-22T02:53:30.585Z,7.20
2022-11-22T02:55:02.172Z,8.60
2022-11-22T02:56:33.749Z,9.25
2022-11-22T02:58:05.962Z,8.00
2022-11-22T02:59:37.594Z,7.57
2022-11-22T03:01:09.344Z,8.10
2022-11-22T03:02:40.937Z,7.45
2022-11-22T03:04:24.668Z,7.82
2022-11-22T03:05:56.661Z,7.45
2022-11-22T03:07:28.189Z,7.65
2022-11-22T03:08:59.813Z,6.80
2022-11-22T03:10:31.618Z,7.13
2022-11-22T03:12:03.337Z,8.20
2022-11-22T03:13:34.863Z,8.73
2022-11-22T03:15:06.703Z,8.52
2022-11-22T03:16:38.294Z,8.07
2022-11-22T03:18:09.875Z,8.07
2022-11-22T03:19:41.447Z,7.88
2022-11-22T03:21:13.064Z,7.20
2022-11-22T03:22:44.661Z,7.03
2022-11-22T03:24:16.868Z,7.57
2022-11-22T03:25:48.379Z,7.50
2022-11-22T03:27:19.882Z,6.80
2022-11-22T03:28:51.483Z,8.05
2022-11-22T03:30:23.157Z,7.65
2022-11-22T03:31:54.697Z,7.28
2022-11-22T03:33:26.317Z,7.00
2022-11-22T03:34:57.909Z,6.32
2022-11-22T03:36:29.528Z,7.28
2022-11-22T03:38:01.131Z,6.93
2022-11-22T03:39:33.167Z,6.53
2022-11-22T03:41:04.919Z,5.40
2022-11-22T03:42:36.508Z,6.57
2022-11-22T03:44:08.191Z,7.45
2022-11-22T03:45:45.274Z,6.25
2022-11-22T03:47:16.967Z,5.07
2022-11-22T03:48:48.525Z,5.20
2022-11-22T03:50:20.080Z,6.60
2022-11-22T03:51:51.706Z,6.15
2022-11-22T03:53:23.289Z,5.22
2022-11-22T03:54:54.897Z,6.20
2022-11-22T03:56:26.408Z,6.03
2022-11-22T03:57:58.017Z,6.07
2022-11-22T03:59:29.961Z,4.88
2022-11-22T04:01:02.096Z,4.65
2022-11-22T04:02:33.698Z,5.47
2022-11-22T04:04:05.507Z,5.35
2022-11-22T04:05:37.048Z,6.03
2022-11-22T04:07:08.641Z,5.80
2022-11-22T04:08:40.695Z,5.60
2022-11-22T04:10:13.045Z,6.43
2022-11-22T04:11:45.965Z,6.72
2022-11-22T04:13:18.125Z,7.22
2022-11-22T04:15:07.884Z,5.07
2022-11-22T04:16:39.678Z,5.97
2022-11-22T04:18:12.912Z,5.38
2022-11-22T04:20:04.432Z,5.10
2022-11-22T04:21:36.064Z,4.53
2022-11-22T04:23:10.588Z,6.20
2022-11-22T04:25:00.656Z,5.45
2022-11-22T04:26:32.214Z,6.22
2022-11-22T04:28:05.202Z,6.32
2022-11-22T04:29:36.713Z,5.70
2022-11-22T04:31:26.585Z,5.55
2022-11-22T04:32:58.152Z,4.63
2022-11-22T04:34:29.692Z,5.18
2022-11-22T04:36:01.437Z,5.75
2022-11-22T04:37:33.010Z,5.57
2022-11-22T04:39:04.671Z,5.35
2022-11-22T04:40:37.014Z,5.00
2022-11-22T04:42:27.808Z,5.28
2022-11-22T04:44:17.901Z,5.30
2022-11-22T04:45:49.978Z,6.35
2022-11-22T04:47:40.303Z,5.45
2022-11-22T04:49:11.830Z,5.93
2022-11-22T04:51:02.989Z,5.35
2022-11-22T04:52:53.145Z,4.95
2022-11-22T04:54:24.844Z,5.25
2022-11-22T04:55:56.986Z,6.65
2022-11-22T04:57:28.542Z,6.20
2022-11-22T04:59:00.108Z,5.68
2022-11-22T05:00:32.532Z,11.02
2022-11-22T05:02:04.301Z,7.55
2022-11-22T05:03:35.954Z,5.22
2022-11-22T05:05:07.949Z,4.75
2022-11-22T05:06:39.523Z,5.03
2022-11-22T05:08:11.667Z,4.53
2022-11-22T05:09:43.197Z,5.40
2022-11-22T05:11:14.805Z,4.68
2022-11-22T05:12:46.327Z,5.07
2022-11-22T05:14:18.226Z,5.53
2022-11-22T05:15:51.357Z,5.30
2022-11-22T05:17:22.917Z,4.40
2022-11-22T05:19:00.323Z,4.40
2022-11-22T05:20:31.921Z,4.80
2022-11-22T05:22:03.478Z,5.65
2022-11-22T05:23:53.724Z,4.88
2022-11-22T05:25:25.905Z,3.97
2022-11-22T05:26:57.523Z,4.40
2022-11-22T05:28:33.549Z,4.63
2022-11-22T05:30:06.598Z,3.97
2022-11-22T05:31:39.777Z,4.28
2022-11-22T05:33:11.369Z,4.50
2022-11-22T05:34:43.380Z,4.38
2022-11-22T05:36:15.531Z,4.60
2022-11-22T05:37:47.084Z,3.85
2022-11-22T05:39:18.646Z,4.35
2022-11-22T05:40:50.146Z,4.35
2022-11-22T05:42:21.835Z,5.45
2022-11-22T05:43:57.083Z,5.22
2022-11-22T05:45:28.707Z,3.80
2022-11-22T05:47:00.350Z,5.25
2022-11-22T05:48:32.007Z,4.25
2022-11-22T05:50:04.686Z,5.43
2022-11-22T05:51:36.259Z,5.43
2022-11-22T05:53:07.754Z,5.82
2022-11-22T05:54:39.317Z,6.20
2022-11-22T05:56:23.037Z,5.30
2022-11-22T05:57:54.653Z,5.50
2022-11-22T05:59:26.162Z,16.35
2022-11-22T06:01:03.687Z,10.85
2022-11-22T06:02:35.261Z,8.30
2022-11-22T06:04:06.881Z,8.82
2022-11-22T06:05:38.457Z,9.25
2022-11-22T06:07:10.726Z,7.82
2022-11-22T06:08:45.166Z,9.43
2022-11-22T06:10:16.833Z,10.65
2022-11-22T06:11:48.414Z,13.18
2022-11-22T06:13:19.966Z,11.23
2022-11-22T06:14:51.884Z,9.63
2022-11-22T06:16:24.214Z,9.80
2022-11-22T06:17:55.881Z,7.72
2022-11-22T06:19:27.569Z,4.05
2022-11-22T06:21:03.241Z,3.42
2022-11-22T06:22:34.805Z,4.45
2022-11-22T06:24:07.095Z,5.00
2022-11-22T06:25:38.739Z,6.55
2022-11-22T06:27:10.351Z,5.80
2022-11-22T06:28:42.285Z,6.30
2022-11-22T06:30:14.125Z,5.63
2022-11-22T06:31:45.748Z,7.30
2022-11-22T06:33:17.284Z,4.78
2022-11-22T06:34:48.829Z,5.32
2022-11-22T06:36:23.393Z,3.88
2022-11-22T06:38:00.398Z,5.55
2022-11-22T06:39:32.592Z,4.20
2022-11-22T06:41:06.642Z,4.72
2022-11-22T06:42:38.230Z,5.30
2022-11-22T06:44:10.269Z,4.57
2022-11-22T06:45:41.782Z,5.72
2022-11-22T06:47:13.436Z,7.20
2022-11-22T06:48:45.026Z,8.52
2022-11-22T06:50:21.542Z,5.28
2022-11-22T06:51:53.584Z,5.50
2022-11-22T06:53:46.216Z,6.03
2022-11-22T06:55:48.459Z,5.28
2022-11-22T06:57:13.507Z,5.43
2022-11-22T06:58:46.374Z,4.93
2022-11-22T07:00:19.454Z,5.43
2022-11-22T07:01:54.343Z,6.57
2022-11-22T07:03:25.945Z,7.72
2022-11-22T07:05:24.122Z,8.65
2022-11-22T07:06:49.237Z,8.38
2022-11-22T07:08:21.361Z,8.18
2022-11-22T07:09:56.382Z,7.90
2022-11-22T07:11:30.599Z,6.32
2022-11-22T07:13:02.223Z,8.50
2022-11-22T07:14:33.890Z,7.85
2022-11-22T07:16:07.695Z,7.13
2022-11-22T07:17:39.392Z,5.43
2022-11-22T07:19:11.002Z,6.60
2022-11-22T07:20:42.567Z,5.95
2022-11-22T07:22:14.212Z,6.53
2022-11-22T07:23:48.293Z,6.40
2022-11-22T07:25:19.903Z,5.82
2022-11-22T07:26:51.475Z,5.15
2022-11-22T07:28:23.503Z,5.95
2022-11-22T07:29:55.122Z,6.25
2022-11-22T07:31:26.869Z,6.70
2022-11-22T07:32:58.440Z,5.90
2022-11-22T07:34:30.016Z,6.95
2022-11-22T07:36:15.706Z,6.95
2022-11-22T07:37:47.273Z,5.47
2022-11-22T07:39:18.985Z,5.78
2022-11-22T07:40:50.611Z,5.65
2022-11-22T07:42:25.980Z,5.90
2022-11-22T07:43:58.596Z,5.90
2022-11-22T07:45:30.147Z,5.78
2022-11-22T07:47:01.706Z,6.55
2022-11-22T07:48:33.331Z,5.85
2022-11-22T07:50:05.687Z,7.20
2022-11-22T07:51:37.279Z,7.13
2022-11-22T07:53:09.627Z,6.63
2022-11-22T07:54:41.182Z,6.05
2022-11-22T07:56:13.045Z,7.35
2022-11-22T07:57:44.606Z,5.65
2022-11-22T07:59:16.381Z,6.28
2022-11-22T08:00:48.013Z,7.00
2022-11-22T08:02:19.575Z,6.57
2022-11-22T08:03:51.396Z,7.55
2022-11-22T08:05:23.133Z,6.30
2022-11-22T08:06:54.647Z,6.55
2022-11-22T08:08:26.329Z,7.93
2022-11-22T08:09:57.955Z,6.25
2022-11-22T08:11:29.564Z,5.13
2022-11-22T08:13:01.268Z,5.28
2022-11-22T08:14:32.912Z,5.47
2022-11-22T08:16:07.760Z,5.78
2022-11-22T08:17:39.512Z,5.38
2022-11-22T08:19:15.963Z,6.53
2022-11-22T08:20:47.656Z,5.78
2022-11-22T08:22:19.611Z,6.97
2022-11-22T08:23:51.209Z,6.68
2022-11-22T08:25:22.796Z,6.38
2022-11-22T08:26:54.474Z,6.35
2022-11-22T08:28:26.380Z,6.07
2022-11-22T08:29:57.997Z,6.03
2022-11-22T08:31:29.544Z,6.57
2022-11-22T08:33:01.180Z,7.07
2022-11-22T08:34:32.767Z,8.55
2022-11-22T08:36:05.134Z,9.32
2022-11-22T08:37:36.800Z,11.35
2022-11-22T08:39:08.608Z,9.02
2022-11-22T08:40:42.292Z,9.38
2022-11-22T08:42:13.979Z,11.48
2022-11-22T08:43:45.669Z,14.48
2022-11-22T08:45:17.372Z,16.55
2022-11-22T08:46:48.912Z,15.55
2022-11-22T08:48:22.458Z,19.88
2022-11-22T08:49:54.274Z,21.05
2022-11-22T08:51:25.907Z,14.52
2022-11-22T08:52:57.560Z,9.25
2022-11-22T08:54:32.393Z,8.07
2022-11-22T08:56:09.732Z,6.82
2022-11-22T08:57:41.358Z,7.25
2022-11-22T08:59:12.982Z,5.03
2022-11-22T09:00:45.141Z,4.15
2022-11-22T09:02:16.839Z,5.00
2022-11-22T09:03:49.349Z,4.45
2022-11-22T09:05:21.000Z,4.00
2022-11-22T09:08:55.371Z,4.40
2022-11-22T09:10:34.868Z,2.92
2022-11-22T09:12:07.026Z,4.47
2022-11-22T09:13:39.146Z,4.25
2022-11-22T09:15:10.852Z,4.82
2022-11-22T09:16:42.387Z,3.55
2022-11-22T09:18:13.988Z,4.35
2022-11-22T09:19:45.653Z,4.10
2022-11-22T09:21:19.651Z,4.53
2022-11-22T09:22:51.224Z,3.33
2022-11-22T09:24:22.913Z,3.80
2022-11-22T09:26:02.831Z,3.65
2022-11-22T09:27:35.152Z,2.78
2022-11-22T09:29:06.878Z,3.45
2022-11-22T09:30:38.478Z,3.67
2022-11-22T09:32:10.587Z,3.30
2022-11-22T09:33:45.986Z,3.67
2022-11-22T09:35:20.152Z,3.47
2022-11-22T09:36:51.684Z,3.95
2022-11-22T09:38:23.237Z,3.67
2022-11-22T09:39:54.786Z,3.42
2022-11-22T09:41:41.487Z,3.45
2022-11-22T09:43:20.556Z,4.07
2022-11-22T09:45:22.113Z,3.95
2022-11-22T09:46:58.563Z,3.13
2022-11-22T09:48:45.145Z,4.22
2022-11-22T09:50:41.470Z,3.65
2022-11-22T09:52:34.991Z,3.10
2022-11-22T09:54:30.660Z,3.13
2022-11-22T09:56:07.999Z,3.03
2022-11-22T09:57:44.633Z,3.20
2022-11-22T09:59:33.150Z,4.75
2022-11-22T10:01:17.556Z,3.15
2022-11-22T10:03:00.681Z,2.13
2022-11-22T10:04:37.852Z,3.03
2022-11-22T10:06:17.392Z,3.80
2022-11-22T10:07:59.730Z,3.65
2022-11-22T10:11:36.722Z,2.60
2022-11-22T10:13:16.938Z,3.13
2022-11-22T10:14:54.554Z,2.85
2022-11-22T10:16:38.467Z,3.45
2022-11-22T10:18:14.612Z,1.95
2022-11-22T10:20:07.465Z,2.70
2022-11-22T10:21:39.078Z,3.03
2022-11-22T10:23:16.409Z,3.42
2022-11-22T10:24:48.120Z,4.90
2022-11-22T10:26:32.589Z,3.20
2022-11-22T10:28:18.216Z,2.92
2022-11-22T10:29:55.275Z,3.03
2022-11-22T10:31:39.313Z,2.70
2022-11-22T10:33:29.429Z,3.47
2022-11-22T10:35:01.007Z,3.20
2022-11-22T10:36:48.897Z,1.98
2022-11-22T10:38:48.198Z,3.83
2022-11-22T10:40:26.137Z,3.20
2022-11-22T10:42:26.026Z,3.13
2022-11-22T10:44:26.576Z,2.30
2022-11-22T10:46:36.569Z,2.20
2022-11-22T10:48:26.304Z,2.63
2022-11-22T10:49:58.240Z,3.60
2022-11-22T10:51:57.318Z,2.90
2022-11-22T10:53:50.474Z,2.33
2022-11-22T10:55:31.484Z,2.72
2022-11-22T10:57:25.785Z,2.55
2022-11-22T10:59:35.145Z,2.85
2022-11-22T11:01:15.990Z,1.92
2022-11-22T11:03:04.228Z,2.38
2022-11-22T11:04:38.692Z,2.55
2022-11-22T11:06:43.444Z,2.22
2022-11-22T11:08:47.608Z,1.65
2022-11-22T11:10:35.031Z,2.40
2022-11-22T11:13:49.984Z,2.30
2022-11-22T11:15:48.133Z,1.63
2022-11-22T11:17:34.079Z,2.72
2022-11-22T11:19:18.833Z,3.03
2022-11-22T11:20:52.527Z,2.22
2022-11-22T11:22:51.542Z,2.85
2022-11-22T11:24:17.790Z,3.40
2022-11-22T11:25:51.161Z,3.25
2022-11-22T11:27:30.644Z,3.60
2022-11-22T11:29:17.674Z,2.42
2022-11-22T11:30:57.274Z,2.53
2022-11-22T11:32:28.922Z,2.35
2022-11-22T11:34:26.473Z,2.67
2022-11-22T11:36:04.034Z,2.67
2022-11-22T11:37:38.166Z,2.45
2022-11-22T11:39:31.304Z,2.63
2022-11-22T11:41:18.564Z,2.42
2022-11-22T11:42:50.355Z,2.85
2022-11-22T11:44:34.733Z,3.00
2022-11-22T11:46:24.872Z,3.08
2022-11-22T11:47:56.755Z,2.50
2022-11-22T11:49:31.145Z,2.28
2022-11-22T11:51:17.277Z,2.05
2022-11-22T11:53:16.408Z,3.25
2022-11-22T11:54:53.235Z,2.88
2022-11-22T11:56:50.514Z,2.25
2022-11-22T11:58:24.936Z,1.92
2022-11-22T12:00:01.851Z,2.92
2022-11-22T12:01:38.896Z,2.60
2022-11-22T12:03:15.012Z,3.33
2022-11-22T12:04:46.557Z,2.47
2022-11-22T12:06:18.460Z,2.70
2022-11-22T12:07:50.214Z,2.88
2022-11-22T12:09:30.991Z,3.47
2022-11-22T12:11:08.860Z,2.80
2022-11-22T12:12:45.341Z,2.22
2022-11-22T12:14:24.174Z,2.75
2022-11-22T12:16:08.579Z,2.45
2022-11-22T12:17:50.104Z,2.67
2022-11-22T12:19:45.627Z,2.10
2022-11-22T12:22:29.370Z,2.85
2022-11-22T12:26:34.546Z,2.50
2022-11-22T12:28:32.772Z,2.05
2022-11-22T12:30:11.218Z,2.47
2022-11-22T12:31:47.680Z,2.95
2022-11-22T12:33:24.677Z,2.20
2022-11-22T12:35:22.026Z,2.60
2022-11-22T12:37:04.023Z,2.42
2022-11-22T12:38:41.722Z,2.03
2022-11-22T12:40:18.300Z,2.17
2022-11-22T12:41:53.605Z,2.20
2022-11-22T12:43:36.815Z,2.08
2022-11-22T12:45:25.043Z,2.08
2022-11-22T12:47:01.605Z,1.95
2022-11-22T12:48:23.477Z,2.70
2022-11-22T12:48:50.010Z,2.22
2022-11-22T12:50:30.533Z,1.58
2022-11-22T12:52:26.298Z,1.33
2022-11-22T12:54:02.789Z,2.13
2022-11-22T12:56:02.554Z,2.15
2022-11-22T12:57:50.057Z,1.50
2022-11-22T12:59:28.880Z,1.67
2022-11-22T13:01:07.551Z,2.67
2022-11-22T13:02:45.376Z,2.17
2022-11-22T13:04:28.881Z,1.75
2022-11-22T13:06:05.294Z,1.88
2022-11-22T13:07:37.047Z,1.67
2022-11-22T13:09:15.912Z,1.92
2022-11-22T13:10:59.439Z,3.05
2022-11-22T13:12:41.282Z,1.88
2022-11-22T13:14:20.958Z,2.45
2022-11-22T13:15:55.676Z,2.67
2022-11-22T13:17:33.725Z,1.42
2022-11-22T13:19:07.052Z,2.42
2022-11-22T13:20:45.063Z,2.35
2022-11-22T13:22:19.654Z,1.75
2022-11-22T13:24:14.955Z,2.17
2022-11-22T13:26:08.044Z,2.13
2022-11-22T13:27:46.276Z,1.73
2022-11-22T13:29:27.082Z,2.38
2022-11-22T13:31:25.087Z,2.92
2022-11-22T13:32:59.899Z,2.08
2022-11-22T13:34:32.959Z,2.72
2022-11-22T13:36:31.033Z,1.83
2022-11-22T13:38:13.367Z,2.65
2022-11-22T13:41:32.958Z,2.00
2022-11-22T13:43:17.914Z,2.53
2022-11-22T13:44:56.054Z,3.83
2022-11-22T13:46:54.789Z,2.33
2022-11-22T13:48:41.779Z,2.03
2022-11-22T13:50:58.044Z,4.00
2022-11-22T13:52:51.234Z,2.45
2022-11-22T13:54:46.241Z,2.38
2022-11-22T13:56:20.798Z,2.42
2022-11-22T13:57:52.517Z,2.20
2022-11-22T13:59:24.084Z,2.45
2022-11-22T14:00:57.286Z,2.97
2022-11-22T14:02:29.172Z,3.50
2022-11-22T14:04:23.900Z,3.75
2022-11-22T14:05:58.090Z,5.45
2022-11-22T14:07:37.518Z,2.72
2022-11-22T14:09:28.683Z,2.35
2022-11-22T14:11:06.437Z,2.13
2022-11-22T14:13:00.866Z,2.78
2022-11-22T14:14:44.744Z,3.17
2022-11-22T14:16:51.755Z,2.17
2022-11-22T14:18:44.993Z,2.50
2022-11-22T14:20:19.621Z,2.78
2022-11-22T14:21:53.861Z,3.22
2022-11-22T14:24:00.694Z,3.00
2022-11-22T14:25:50.321Z,2.40
2022-11-22T14:27:47.202Z,2.30
2022-11-22T14:29:33.853Z,2.65
2022-11-22T14:31:25.463Z,2.78
2022-11-22T14:33:15.679Z,3.63
2022-11-22T14:35:05.590Z,2.67
2022-11-22T14:36:37.277Z,2.58
2022-11-22T14:38:31.108Z,1.85
2022-11-22T14:40:08.757Z,2.25
2022-11-22T14:41:44.065Z,2.17
2022-11-22T14:43:36.193Z,2.20
2022-11-22T14:45:10.522Z,2.03
2022-11-22T14:46:53.614Z,2.83
2022-11-22T14:48:35.182Z,2.63
2022-11-22T14:50:27.497Z,1.92
2022-11-22T14:52:00.233Z,2.97
2022-11-22T14:53:45.851Z,1.83
2022-11-22T14:55:23.906Z,1.77
2022-11-22T14:57:03.974Z,2.30
2022-11-22T14:58:41.060Z,2.80
2022-11-22T15:00:20.300Z,2.03
2022-11-22T15:01:58.032Z,1.95
2022-11-22T15:09:11.517Z,2.38
2022-11-22T15:09:20.799Z,1.90
2022-11-22T15:09:23.704Z,2.15
2022-11-22T15:10:03.369Z,2.17
2022-11-22T15:12:04.776Z,2.22
2022-11-22T15:13:47.074Z,1.73
2022-11-22T15:57:26.579Z,1.85
2022-11-22T15:58:58.813Z,2.22
2022-11-22T16:00:30.416Z,2.85
2022-11-22T16:02:02.515Z,2.45
2022-11-22T16:03:45.869Z,3.00
2022-11-22T16:06:06.775Z,2.30
2022-11-22T16:07:40.316Z,2.58
2022-11-22T16:09:23.834Z,3.05
2022-11-22T16:10:55.883Z,4.07
2022-11-22T16:12:37.025Z,3.35
2022-11-22T16:14:36.339Z,5.93
2022-11-22T16:16:19.941Z,4.68
2022-11-22T16:17:59.450Z,4.20
2022-11-22T16:19:32.679Z,3.58
2022-11-22T16:21:11.299Z,3.00
2022-11-22T16:22:43.000Z,3.22
2022-11-22T16:24:18.790Z,3.00
2022-11-22T16:25:54.751Z,2.70
2022-11-22T16:27:26.476Z,2.30
2022-11-22T16:29:26.131Z,2.97
2022-11-22T16:31:01.233Z,2.78
2022-11-22T16:32:33.100Z,3.67
2022-11-22T16:34:13.103Z,3.03
2022-11-22T16:35:44.777Z,4.15
2022-11-22T16:37:36.391Z,4.22
2022-11-22T16:39:10.020Z,4.15
2022-11-22T16:40:43.658Z,4.82
2022-11-22T16:42:15.389Z,7.85
2022-11-22T16:43:51.116Z,7.07
2022-11-22T16:45:23.341Z,5.13
2022-11-22T16:46:54.953Z,7.25
2022-11-22T16:48:32.771Z,7.13
2022-11-22T16:50:05.207Z,6.40
2022-11-22T16:51:36.857Z,9.50
2022-11-22T16:53:12.340Z,11.00
2022-11-22T16:54:44.037Z,17.45
2022-11-22T16:56:19.815Z,12.32
2022-11-22T16:57:51.416Z,7.65
2022-11-22T16:59:22.999Z,10.13
2022-11-22T17:00:55.368Z,7.22
2022-11-22T17:02:29.238Z,6.25
2022-11-22T17:04:02.856Z,7.05
2022-11-22T17:05:34.568Z,4.60
2022-11-22T17:07:10.782Z,4.43
2022-11-22T17:08:42.554Z,3.33
2022-11-22T17:10:14.423Z,3.83
2022-11-22T17:11:46.580Z,3.42
2022-11-22T17:13:22.972Z,4.07
2022-11-22T17:14:54.700Z,3.08
2022-11-22T17:16:26.429Z,4.70
2022-11-22T17:17:58.206Z,5.57
2022-11-22T17:21:35.868Z,3.63
2022-11-22T17:23:21.932Z,5.70
2022-11-22T17:24:53.646Z,5.45
2022-11-22T17:26:26.021Z,4.80
2022-11-22T17:27:57.783Z,3.80
2022-11-22T17:31:23.192Z,3.95
2022-11-22T17:32:54.868Z,3.13
2022-11-22T17:34:26.443Z,3.40
2022-11-22T17:35:58.157Z,3.90
2022-11-22T17:37:30.032Z,4.60
2022-11-22T17:39:04.631Z,4.47
2022-11-22T17:40:36.381Z,3.83
2022-11-22T17:42:08.161Z,4.88
2022-11-22T17:43:39.923Z,4.03
2022-11-22T17:45:11.697Z,4.75
2022-11-22T17:46:47.237Z,4.60
2022-11-22T17:48:18.951Z,4.85
2022-11-22T17:49:50.595Z,5.13
2022-11-22T17:51:22.831Z,4.43
2022-11-22T17:52:54.557Z,4.57
2022-11-22T17:54:26.173Z,3.67
2022-11-22T17:56:12.950Z,3.60
2022-11-22T17:57:44.556Z,2.85
2022-11-22T17:59:16.217Z,2.83
2022-11-22T18:00:47.821Z,2.95
2022-11-22T18:02:19.479Z,3.30
2022-11-22T18:03:51.452Z,3.40
2022-11-22T18:05:23.050Z,3.35
2022-11-22T18:06:54.678Z,3.22
2022-11-22T18:08:26.604Z,4.20
2022-11-22T18:09:58.179Z,2.88
2022-11-22T18:11:29.779Z,3.90
2022-11-22T18:14:53.527Z,3.75
2022-11-22T18:16:31.318Z,3.85
2022-11-22T18:18:02.956Z,4.63
2022-11-22T18:19:34.644Z,4.60
2022-11-22T18:21:11.436Z,3.92
2022-11-22T18:22:44.479Z,3.72
2022-11-22T18:24:16.016Z,3.75
2022-11-22T18:25:47.827Z,4.05
2022-11-22T18:27:19.846Z,5.75
2022-11-22T18:29:16.137Z,3.50
2022-11-22T18:30:44.430Z,5.30
2022-11-22T18:32:15.978Z,4.78
2022-11-22T18:33:47.651Z,4.93
2022-11-22T18:35:19.351Z,4.30
2022-11-22T18:37:06.760Z,4.57
2022-11-22T18:38:38.358Z,5.55
2022-11-22T18:40:10.804Z,6.53
2022-11-22T18:41:43.699Z,7.03
2022-11-22T18:43:15.311Z,5.93
2022-11-22T18:44:46.891Z,4.82
2022-11-22T18:46:18.611Z,3.78
2022-11-22T18:47:50.232Z,5.07
2022-11-22T18:49:22.247Z,4.20
2022-11-22T18:50:53.912Z,4.20
2022-11-22T18:52:26.608Z,4.05
2022-11-22T18:54:00.075Z,4.70
2022-11-22T18:55:33.029Z,4.20
2022-11-22T18:57:04.608Z,4.15
2022-11-22T18:58:37.022Z,3.92
2022-11-22T19:00:09.406Z,4.10
2022-11-22T19:01:41.767Z,4.80
2022-11-22T19:03:13.408Z,3.72
2022-11-22T19:04:45.043Z,4.15
2022-11-22T19:06:18.964Z,3.55
2022-11-22T19:07:50.673Z,3.08
2022-11-22T19:09:22.322Z,3.85
2022-11-22T19:10:58.000Z,3.50
2022-11-22T19:12:29.990Z,3.83
2022-11-22T19:14:01.755Z,4.70
2022-11-22T19:15:33.498Z,3.70
2022-11-22T19:17:05.546Z,4.90
2022-11-22T19:18:42.675Z,5.05
2022-11-22T19:20:32.420Z,9.68
2022-11-22T19:22:06.984Z,22.67
2022-11-22T19:23:39.086Z,18.92
2022-11-22T19:25:10.791Z,16.42
2022-11-22T19:26:42.515Z,11.43
2022-11-22T19:28:14.234Z,11.07
2022-11-22T19:29:45.945Z,11.93
2022-11-22T19:31:22.095Z,10.23
2022-11-22T19:32:55.727Z,8.48
2022-11-22T19:34:29.019Z,7.75
2022-11-22T19:36:03.025Z,6.03
2022-11-22T19:37:35.425Z,8.80
2022-11-22T19:39:11.286Z,9.07
2022-11-22T19:40:42.993Z,7.50
2022-11-22T19:42:16.909Z,6.53
2022-11-22T19:43:50.093Z,6.70
2022-11-22T19:45:21.743Z,7.18
2022-11-22T19:46:53.569Z,7.38
2022-11-22T19:48:25.341Z,7.10
2022-11-22T19:49:56.957Z,8.45
2022-11-22T19:51:31.132Z,7.05
2022-11-22T19:53:03.458Z,7.60
2022-11-22T19:54:35.259Z,5.05
2022-11-22T19:56:11.457Z,5.72
2022-11-22T19:57:43.412Z,5.30
2022-11-22T19:59:17.147Z,4.65
2022-11-22T20:00:48.986Z,5.20
2022-11-22T20:02:20.686Z,4.75
2022-11-22T20:03:54.606Z,4.38
2022-11-22T20:05:26.613Z,5.30
2022-11-22T20:06:59.859Z,5.43
2022-11-22T20:08:32.239Z,4.65
2022-11-22T20:10:04.450Z,5.80
2022-11-22T20:11:37.633Z,7.07
2022-11-22T20:13:10.704Z,9.50
2022-11-22T20:14:42.710Z,8.45
2022-11-22T20:16:15.992Z,8.32
2022-11-22T20:17:47.766Z,8.20
2022-11-22T20:19:19.427Z,8.93
2022-11-22T20:20:51.208Z,7.20
2022-11-22T20:22:22.957Z,7.97
2022-11-22T20:23:55.357Z,7.15
2022-11-22T20:25:27.034Z,7.60
2022-11-22T20:26:58.797Z,6.72
2022-11-22T20:28:30.600Z,7.40
2022-11-22T20:30:02.405Z,6.63
2022-11-22T20:31:36.448Z,6.78
2022-11-22T20:33:08.264Z,7.10
2022-11-22T20:34:40.086Z,8.80
2022-11-22T20:36:15.011Z,10.23
2022-11-22T20:37:46.759Z,14.13
2022-11-22T20:39:18.620Z,14.50
2022-11-22T20:40:56.498Z,12.15
2022-11-22T20:42:35.507Z,9.90
2022-11-22T20:44:12.483Z,10.52
2022-11-22T20:45:44.277Z,10.55
2022-11-22T20:47:16.130Z,11.25
2022-11-22T20:48:48.626Z,9.82
2022-11-22T20:50:21.027Z,10.35
2022-11-22T20:51:52.782Z,11.52
2022-11-22T20:53:24.805Z,11.35
2022-11-22T20:55:00.382Z,10.35
2022-11-22T20:56:37.403Z,10.18
2022-11-22T20:58:09.236Z,10.18
2022-11-22T20:59:40.842Z,9.02
2022-11-22T21:01:15.435Z,11.23
2022-11-22T21:02:47.242Z,9.05
2022-11-22T21:04:19.469Z,10.88
2022-11-22T21:05:54.823Z,9.85
2022-11-22T21:07:26.670Z,9.35
2022-11-22T21:08:58.791Z,11.15
2022-11-22T21:10:31.212Z,10.43
2022-11-22T21:12:03.494Z,10.07
2022-11-22T21:13:35.551Z,10.13
2022-11-22T21:15:07.779Z,8.98
2022-11-22T21:16:39.807Z,8.32
2022-11-22T21:18:27.104Z,8.05
2022-11-22T21:19:58.983Z,8.40
2022-11-22T21:21:32.381Z,7.72
2022-11-22T21:23:04.703Z,7.38
2022-11-22T21:24:37.253Z,8.10
2022-11-22T21:26:09.102Z,8.05
2022-11-22T21:27:41.252Z,9.93
2022-11-22T21:29:16.743Z,9.02
2022-11-22T21:30:57.725Z,8.95
2022-11-22T21:32:31.511Z,8.98
2022-11-22T21:34:03.462Z,8.30
2022-11-22T21:35:35.182Z,8.20
2022-11-22T21:37:06.998Z,7.70
2022-11-22T21:38:38.878Z,8.80
2022-11-22T21:40:11.469Z,8.20
2022-11-22T21:41:43.225Z,8.25
2022-11-22T21:43:14.813Z,8.23
2022-11-22T21:44:46.519Z,8.20
2022-11-22T21:46:20.406Z,9.32
2022-11-22T21:47:52.109Z,7.93
2022-11-22T21:49:24.057Z,9.07
2022-11-22T21:50:56.705Z,6.78
2022-11-22T21:52:28.374Z,8.32
2022-11-22T21:54:01.455Z,7.80
2022-11-22T21:55:33.400Z,8.30
2022-11-22T21:57:05.194Z,6.65
2022-11-22T21:58:36.986Z,7.07
2022-11-22T22:00:09.740Z,7.32
2022-11-22T22:01:41.599Z,6.78
2022-11-22T22:03:13.789Z,6.70
2022-11-22T22:04:45.569Z,6.32
2022-11-22T22:06:17.825Z,7.88
2022-11-22T22:07:52.947Z,7.68
2022-11-22T22:09:25.103Z,6.40
2022-11-22T22:11:02.416Z,6.38
2022-11-22T22:12:34.302Z,6.00